createdAt,value
2023-01-05T00:03:40.472Z,0.04
2023-01-05T03:48:49.336Z,0.1
2023-01-05T04:19:24.163Z,0.01
2023-01-05T04:48:40.564Z,0.32
2023-01-05T05:04:14.190Z,1.71
2023-01-05T05:20:37.257Z,0.27
2023-01-05T05:33:40.446Z,0.09
2023-01-05T05:49:38.345Z,0.02
2023-01-05T06:03:40.605Z,13.37
2023-01-05T06:33:40.282Z,3.05
2023-01-05T07:03:50.523Z,0.08
2023-01-05T07:18:40.685Z,0.01
2023-01-05T07:34:16.890Z,0.04
2023-01-05T07:49:07.980Z,0.11
2023-01-05T08:04:51.991Z,0.14
2023-01-05T08:18:40.479Z,0.26
2023-01-05T08:33:40.381Z,0.32
2023-01-05T08:48:40.663Z,0.44
2023-01-05T09:03:40.748Z,1.14
2023-01-05T09:18:40.311Z,0.04
2023-01-05T09:33:40.739Z,0.11
2023-01-05T09:48:44.760Z,0.01
2023-01-05T10:18:45.611Z,0
2023-01-05T10:48:40.396Z,0.05
2023-01-05T11:04:15.251Z,6.37
2023-01-05T11:18:40.417Z,1.81
2023-01-05T12:03:41.156Z,0.12
2023-01-05T12:18:49.238Z,0.02
2023-01-05T12:48:40.473Z,1.89
2023-01-05T13:03:40.102Z,0.05
2023-01-05T13:18:40.120Z,0.83
2023-01-05T13:33:40.693Z,0.08
2023-01-05T13:48:44.914Z,0.33
2023-01-05T14:03:40.185Z,0.28
2023-01-05T14:18:40.786Z,0.46
2023-01-05T14:33:40.675Z,0.75
2023-01-05T14:48:40.269Z,0.07
2023-01-05T15:03:40.824Z,0.01
2023-01-05T15:18:40.548Z,1.06
2023-01-05T15:33:40.603Z,0.85
2023-01-05T15:48:40.661Z,14.54
2023-01-05T16:03:40.333Z,20.51
2023-01-05T16:18:40.337Z,28.64
2023-01-05T16:33:39.971Z,12.36
2023-01-05T16:48:40.699Z,23.43
2023-01-05T17:03:40.535Z,24.33
2023-01-05T17:18:40.450Z,22.91
2023-01-05T17:33:40.921Z,6.89
2023-01-05T17:48:40.390Z,12.74
2023-01-05T18:03:41.573Z,20.9
2023-01-05T18:18:40.144Z,26
2023-01-05T18:33:40.385Z,31.45
2023-01-05T18:48:40.428Z,10.39
2023-01-05T19:03:40.281Z,17
2023-01-05T19:18:40.760Z,21.92
2023-01-05T19:33:40.451Z,11.35
2023-01-05T19:48:40.225Z,1.96
2023-01-05T20:03:40.582Z,15.91
2023-01-05T20:18:40.168Z,3.95
2023-01-05T21:03:40.036Z,3.6
2023-01-05T21:33:40.562Z,0.27
2023-01-05T21:48:40.695Z,2.76
2023-01-05T22:03:40.732Z,19.88
2023-01-05T22:18:39.989Z,8.03
2023-01-05T22:33:39.913Z,14.6
2023-01-05T22:48:40.199Z,1.12
2023-01-05T23:03:40.728Z,1.7
2023-01-05T23:18:39.929Z,3.54
2023-01-05T23:33:40.432Z,0.97
2023-01-05T23:48:40.673Z,0.7
